Aviation Digital Data Service (ADDS)

Output produced by METARs form (1947 UTC 28 April 2017)
found at http://aviationweather.gov/adds/metars/
 
KSWF 281911Z 2819/2924 26012KT P6SM FEW050 SCT250 
     FM282300 25008KT P6SM SCT250 
     FM290100 VRB03KT P6SM SCT250 
     FM290600 VRB03KT P6SM OVC150 
     FM290800 VRB03KT 4SM BR VCSH SCT010 BKN040 
     TEMPO 2908/2912 SHRA BR BKN010 BKN040 
     FM291400 24008KT P6SM FEW025 BKN100 
     FM291700 26012G21KT P6SM FEW040 BKN250 
     FM292200 30010KT P6SM FEW040 BKN250 AMD NOT SKED